createdAt,value
2018-01-01T00:02:34.573Z,150.03
2018-01-01T00:17:34.143Z,156.47
2018-01-01T00:32:34.616Z,126.70
2018-01-01T00:47:35.569Z,148.57
2018-01-01T01:02:35.870Z,138.03
2018-01-01T01:17:34.411Z,132.90
2018-01-01T01:32:33.893Z,73.33
2018-01-01T01:47:34.384Z,61.70
2018-01-01T02:02:34.203Z,98.27
2018-01-01T02:17:35.610Z,85.63
2018-01-01T02:32:34.565Z,90.70
2018-01-01T02:47:36.491Z,93.70
2018-01-01T03:02:34.505Z,68.20
2018-01-01T03:17:34.958Z,91.53
2018-01-01T03:32:36.848Z,60.57
2018-01-01T03:47:34.805Z,71.00
2018-01-01T04:02:34.732Z,112.17
2018-01-01T04:17:34.057Z,105.67
2018-01-01T04:32:35.000Z,102.67
2018-01-01T04:47:34.927Z,134.53
2018-01-01T05:02:36.945Z,124.00
2018-01-01T05:17:34.318Z,126.90
2018-01-01T05:32:36.263Z,126.20
2018-01-01T05:47:34.266Z,115.27
2018-01-01T06:02:33.892Z,121.23
2018-01-01T06:17:37.618Z,101.50
2018-01-01T06:32:34.451Z,82.17
2018-01-01T06:47:34.368Z,91.90
2018-01-01T07:02:34.287Z,92.10
2018-01-01T07:17:34.789Z,112.50
2018-01-01T07:32:34.653Z,135.53
2018-01-01T07:47:40.454Z,158.30
2018-01-01T08:02:37.553Z,215.97
2018-01-01T08:17:34.409Z,220.20
2018-01-01T08:32:34.776Z,192.40
2018-01-01T08:47:34.650Z,170.70
2018-01-01T09:02:36.852Z,133.40
2018-01-01T09:17:35.284Z,110.97
2018-01-01T09:32:35.550Z,92.57
2018-01-01T09:47:34.961Z,105.90
2018-01-01T10:02:34.503Z,105.77
2018-01-01T10:17:34.253Z,87.10
2018-01-01T10:32:35.154Z,103.87
2018-01-01T10:47:35.095Z,95.17
2018-01-01T11:02:35.248Z,83.43
2018-01-01T11:17:34.487Z,60.10
2018-01-01T11:32:34.396Z,43.57
2018-01-01T11:47:34.405Z,40.23
2018-01-01T12:02:36.597Z,33.67
2018-01-01T12:17:34.900Z,27.60
2018-01-01T12:32:34.648Z,22.00
2018-01-01T12:47:37.832Z,19.43
2018-01-01T13:02:36.509Z,22.00
2018-01-01T13:17:36.859Z,23.40
2018-01-01T13:32:34.902Z,24.23
2018-01-01T13:47:36.783Z,23.87
2018-01-01T14:02:34.891Z,21.33
2018-01-01T14:17:35.312Z,22.63
2018-01-01T14:32:35.260Z,24.30
2018-01-01T14:47:38.981Z,36.30
2018-01-01T15:02:35.246Z,38.00
2018-01-01T15:17:36.577Z,37.23
2018-01-01T15:32:45.831Z,30.20
2018-01-01T15:47:34.483Z,58.00
2018-01-01T16:02:35.355Z,41.43
2018-01-01T16:17:37.750Z,57.87
2018-01-01T16:32:37.866Z,53.23
2018-01-01T16:47:59.318Z,37.00
2018-01-01T17:17:36.298Z,45.40
2018-01-01T17:29:18.586Z,47.50
2018-01-01T17:31:46.452Z,50.50
2018-01-01T17:47:36.698Z,45.60
2018-01-01T18:02:33.757Z,49.73
2018-01-01T18:17:34.700Z,45.73
2018-01-01T18:32:33.683Z,62.00
2018-01-01T18:40:25.177Z,54.53
2018-01-01T18:47:33.758Z,56.17
2018-01-01T19:02:37.076Z,51.27
2018-01-01T19:17:35.031Z,53.70
2018-01-01T19:32:34.330Z,60.27
2018-01-01T19:47:34.016Z,66.50
2018-01-01T20:02:34.198Z,51.83
2018-01-01T20:17:37.060Z,49.63
2018-01-01T20:32:37.122Z,51.83
2018-01-01T20:47:35.870Z,45.33
2018-01-01T21:02:34.286Z,46.97
2018-01-01T21:17:33.518Z,63.53
2018-01-01T21:32:35.256Z,65.10
2018-01-01T21:47:36.053Z,61.27
2018-01-01T22:02:35.091Z,73.47
2018-01-01T22:17:33.866Z,74.43
2018-01-01T22:32:34.403Z,78.23
2018-01-01T22:47:34.218Z,79.67
2018-01-01T23:02:34.049Z,79.67
2018-01-01T23:17:34.034Z,72.00
2018-01-01T23:32:36.654Z,58.60
2018-01-01T23:47:35.051Z,57.13
